createdAt,value
2018-01-16T00:01:48.657Z,92661.40
2018-01-16T00:04:17.007Z,92653.98
2018-01-16T00:06:45.387Z,92651.44
2018-01-16T00:09:13.794Z,92649.67
2018-01-16T00:11:42.134Z,92647.33
2018-01-16T00:14:10.483Z,92640.84
2018-01-16T00:16:38.835Z,92632.89
2018-01-16T00:19:07.185Z,92642.19
2018-01-16T00:21:35.601Z,92639.59
2018-01-16T00:24:03.974Z,92632.63
2018-01-16T00:26:32.324Z,92621.99
2018-01-16T00:29:00.691Z,92622.25
2018-01-16T00:31:29.049Z,92615.87
2018-01-16T00:33:57.398Z,92617.45
2018-01-16T00:36:25.786Z,92609.01
2018-01-16T00:38:54.129Z,92594.92
2018-01-16T00:41:22.474Z,92596.75
2018-01-16T00:43:50.819Z,92607.14
2018-01-16T00:46:19.182Z,92607.52
2018-01-16T00:48:47.547Z,92597.74
2018-01-16T00:51:15.887Z,92597.91
2018-01-16T00:53:44.389Z,92598.02
2018-01-16T00:56:12.744Z,92611.81
2018-01-16T00:58:41.087Z,92605.69
2018-01-16T01:01:09.432Z,92618.86
2018-01-16T01:03:37.784Z,92620.79
2018-01-16T01:06:06.146Z,92615.29
2018-01-16T01:08:34.504Z,92616.15
2018-01-16T01:11:02.860Z,92622.41
2018-01-16T01:13:31.206Z,92616.86
2018-01-16T01:15:59.543Z,92623.45
2018-01-16T01:18:27.946Z,92626.81
2018-01-16T01:20:56.298Z,92631.35
2018-01-16T01:23:24.646Z,92650.55
2018-01-16T01:25:52.990Z,92639.38
2018-01-16T01:28:21.335Z,92651.11
2018-01-16T01:30:49.695Z,92658.96
2018-01-16T01:33:18.050Z,92648.14
2018-01-16T01:35:46.430Z,92659.40
2018-01-16T01:38:14.774Z,92657.02
2018-01-16T01:40:43.132Z,92666.38
2018-01-16T01:43:11.487Z,92655.57
2018-01-16T01:45:39.854Z,92654.23
2018-01-16T01:48:08.266Z,92667.36
2018-01-16T01:50:36.595Z,92666.95
2018-01-16T01:53:04.951Z,92663.09
2018-01-16T01:55:33.394Z,92669.04
2018-01-16T01:58:01.736Z,92666.05
2018-01-16T02:00:30.106Z,92675.29
2018-01-16T02:02:58.450Z,92689.71
2018-01-16T02:05:26.808Z,92694.07
2018-01-16T02:07:55.162Z,92696.74
2018-01-16T02:10:23.535Z,92696.53
2018-01-16T02:12:51.929Z,92685.06
2018-01-16T02:15:20.312Z,92677.53
2018-01-16T02:17:48.691Z,92680.38
2018-01-16T02:20:17.047Z,92674.74
2018-01-16T02:22:45.387Z,92681.94
2018-01-16T02:25:13.769Z,92682.95
2018-01-16T02:27:42.111Z,92682.33
2018-01-16T02:30:10.467Z,92684.72
2018-01-16T02:32:38.817Z,92680.10
2018-01-16T02:35:07.171Z,92672.39
2018-01-16T02:37:35.575Z,92672.62
2018-01-16T02:40:03.961Z,92657.51
2018-01-16T02:42:32.315Z,92661.31
2018-01-16T02:45:00.687Z,92644.33
2018-01-16T02:47:29.039Z,92640.25
2018-01-16T02:49:57.479Z,92654.59
2018-01-16T02:52:25.849Z,92661.28
2018-01-16T02:54:54.214Z,92641.52
2018-01-16T02:57:22.554Z,92643.50
2018-01-16T02:59:50.907Z,92641.42
2018-01-16T03:02:19.290Z,92646.14
2018-01-16T03:04:47.640Z,92637.25
2018-01-16T03:07:15.991Z,92623.80
2018-01-16T03:09:44.360Z,92627.28
2018-01-16T03:12:12.706Z,92610.31
2018-01-16T03:14:41.110Z,92609.96
2018-01-16T03:17:09.463Z,92594.07
2018-01-16T03:19:37.817Z,92610.55
2018-01-16T03:22:06.163Z,92610.58
2018-01-16T03:24:34.515Z,92602.19
2018-01-16T03:27:02.899Z,92587.70
2018-01-16T03:29:31.252Z,92590.80
2018-01-16T03:31:59.594Z,92582.52
2018-01-16T03:34:27.953Z,92562.81
2018-01-16T03:36:56.302Z,92554.61
2018-01-16T03:39:24.703Z,92560.68
2018-01-16T03:41:53.062Z,92570.73
2018-01-16T03:44:21.415Z,92573.27
2018-01-16T03:46:49.783Z,92575.48
2018-01-16T03:49:18.119Z,92570.28
2018-01-16T03:51:46.515Z,92563.08
2018-01-16T03:54:14.882Z,92556.72
2018-01-16T03:56:43.239Z,92558.98
2018-01-16T03:59:11.604Z,92545.25
2018-01-16T04:01:40.004Z,92560.59
2018-01-16T04:04:08.379Z,92549.34
2018-01-16T04:06:36.716Z,92542.53
2018-01-16T04:09:05.080Z,92556.38
2018-01-16T04:11:33.429Z,92538.98
2018-01-16T04:14:01.811Z,92531.27
2018-01-16T04:16:30.163Z,92542.26
2018-01-16T04:18:58.550Z,92541.80
2018-01-16T04:21:26.910Z,92530.30
2018-01-16T04:23:55.264Z,92542.73
2018-01-16T04:26:23.603Z,92537.42
2018-01-16T04:28:51.954Z,92534.00
2018-01-16T04:31:20.343Z,92531.08
2018-01-16T04:33:48.710Z,92526.64
2018-01-16T04:36:17.052Z,92513.64
2018-01-16T04:38:45.396Z,92496.80
2018-01-16T04:41:13.750Z,92497.03
2018-01-16T04:43:42.139Z,92494.83
2018-01-16T04:46:10.502Z,92492.22
2018-01-16T04:48:38.846Z,92511.38
2018-01-16T04:51:07.263Z,92493.55
2018-01-16T04:53:35.594Z,92477.48
2018-01-16T04:56:03.982Z,92482.67
2018-01-16T04:58:32.372Z,92489.97
2018-01-16T05:01:00.737Z,92492.41
2018-01-16T05:03:29.078Z,92471.46
2018-01-16T05:05:57.453Z,92473.47
2018-01-16T05:08:25.800Z,92471.48
2018-01-16T05:10:54.186Z,92482.14
2018-01-16T05:13:22.531Z,92489.27
2018-01-16T05:15:50.934Z,92491.22
2018-01-16T05:18:19.236Z,92489.42
2018-01-16T05:20:47.595Z,92498.55
2018-01-16T05:23:15.966Z,92488.92
2018-01-16T05:25:44.703Z,92500.17
2018-01-16T05:28:15.299Z,92490.38
2018-01-16T05:30:43.655Z,92483.20
2018-01-16T05:33:12.321Z,92476.84
2018-01-16T05:35:40.673Z,92478.19
2018-01-16T05:38:09.373Z,92475.97
2018-01-16T05:40:37.823Z,92483.30
2018-01-16T05:43:06.392Z,92480.92
2018-01-16T05:45:35.369Z,92482.33
2018-01-16T05:48:03.947Z,92492.89
2018-01-16T05:50:32.321Z,92474.20
2018-01-16T05:53:00.672Z,92496.56
2018-01-16T05:55:29.032Z,92496.73
2018-01-16T05:57:57.387Z,92491.72
2018-01-16T06:00:25.779Z,92503.38
2018-01-16T06:02:54.137Z,92501.51
2018-01-16T06:05:22.480Z,92510.36
2018-01-16T06:07:50.836Z,92505.53
2018-01-16T06:10:19.182Z,92495.81
2018-01-16T06:12:47.598Z,92510.19
2018-01-16T06:15:15.949Z,92504.33
2018-01-16T06:17:44.312Z,92514.09
2018-01-16T06:20:12.659Z,92511.20
2018-01-16T06:22:41.034Z,92517.77
2018-01-16T06:25:09.370Z,92522.09
2018-01-16T06:27:37.723Z,92506.53
2018-01-16T06:30:06.118Z,92509.45
2018-01-16T06:32:34.471Z,92507.94
2018-01-16T06:35:02.818Z,92515.16
2018-01-16T06:37:31.163Z,92498.40
2018-01-16T06:39:59.569Z,92491.76
2018-01-16T06:42:27.969Z,92493.83
2018-01-16T06:44:56.321Z,92485.37
2018-01-16T06:47:24.673Z,92481.84
2018-01-16T06:49:53.035Z,92489.64
2018-01-16T06:52:21.424Z,92484.26
2018-01-16T06:54:49.802Z,92485.72
2018-01-16T06:57:18.363Z,92477.38
2018-01-16T06:59:46.709Z,92484.37
2018-01-16T07:02:15.056Z,92489.63
2018-01-16T07:04:43.438Z,92485.41
2018-01-16T07:07:11.794Z,92489.52
2018-01-16T07:09:40.179Z,92485.05
2018-01-16T07:12:08.534Z,92488.14
2018-01-16T07:14:36.887Z,92475.64
2018-01-16T07:17:05.278Z,92474.12
2018-01-16T07:22:08.344Z,92484.03
2018-01-16T07:24:36.705Z,92483.88
2018-01-16T07:27:05.066Z,92483.14
2018-01-16T07:29:33.423Z,92474.84
2018-01-16T07:32:01.776Z,92464.20
2018-01-16T07:34:30.178Z,92474.02
2018-01-16T07:36:58.530Z,92469.07
2018-01-16T07:39:26.881Z,92459.22
2018-01-16T07:41:55.228Z,92464.34
2018-01-16T07:44:23.646Z,92458.14
2018-01-16T07:46:52.030Z,92466.84
2018-01-16T07:49:20.400Z,92477.54
2018-01-16T07:51:48.751Z,92486.34
2018-01-16T07:54:17.096Z,92490.70
2018-01-16T07:56:45.454Z,92483.05
2018-01-16T07:59:13.841Z,92479.80
2018-01-16T08:01:42.200Z,92480.19
2018-01-16T08:04:10.572Z,92481.48
2018-01-16T08:06:38.934Z,92476.47
2018-01-16T08:09:07.291Z,92480.19
2018-01-16T08:11:35.689Z,92476.82
2018-01-16T08:14:04.026Z,92476.83
2018-01-16T08:16:32.373Z,92469.79
2018-01-16T08:19:01.038Z,92470.35
2018-01-16T08:21:29.548Z,92465.94
2018-01-16T08:23:57.931Z,92465.41
2018-01-16T08:26:26.286Z,92470.93
2018-01-16T08:28:54.652Z,92474.08
2018-01-16T08:31:23.000Z,92468.11
2018-01-16T08:33:51.412Z,92483.66
2018-01-16T08:36:19.818Z,92466.79
2018-01-16T08:38:48.168Z,92472.89
2018-01-16T08:41:16.513Z,92476.78
2018-01-16T08:43:44.863Z,92486.56
2018-01-16T08:46:13.208Z,92484.63
2018-01-16T08:48:41.584Z,92490.30
2018-01-16T08:51:09.930Z,92496.59
2018-01-16T08:53:38.280Z,92495.78
2018-01-16T08:56:06.648Z,92492.89
2018-01-16T08:58:35.010Z,92487.23
2018-01-16T09:01:03.442Z,92493.23
2018-01-16T09:03:31.806Z,92483.27
2018-01-16T09:06:00.171Z,92482.42
2018-01-16T09:08:28.532Z,92474.75
2018-01-16T09:10:56.882Z,92451.90
2018-01-16T09:13:25.274Z,92469.64
2018-01-16T09:15:53.636Z,92466.14
2018-01-16T09:18:22.004Z,92473.72
2018-01-16T09:20:50.343Z,92484.13
2018-01-16T09:23:18.692Z,92479.80
2018-01-16T09:25:47.139Z,92476.72
2018-01-16T09:28:15.521Z,92472.22
2018-01-16T09:30:43.874Z,92465.41
2018-01-16T09:33:12.309Z,92462.84
2018-01-16T09:35:40.675Z,92463.71
2018-01-16T09:38:09.068Z,92453.67
2018-01-16T09:40:37.424Z,92437.39
2018-01-16T09:43:05.788Z,92447.00
2018-01-16T09:45:34.155Z,92440.37
2018-01-16T09:48:02.526Z,92442.30
2018-01-16T09:50:31.012Z,92421.90
2018-01-16T09:52:59.384Z,92430.67
2018-01-16T09:55:27.885Z,92438.53
2018-01-16T09:57:56.218Z,92443.98
2018-01-16T10:00:24.582Z,92454.69
2018-01-16T10:02:52.963Z,92447.80
2018-01-16T10:05:21.300Z,92450.33
2018-01-16T10:07:49.669Z,92460.48
2018-01-16T10:10:18.023Z,92439.97
2018-01-16T10:12:46.371Z,92427.22
2018-01-16T10:15:14.718Z,92438.01
2018-01-16T10:17:43.087Z,92436.23
2018-01-16T10:20:11.467Z,92427.39
2018-01-16T10:22:39.838Z,92435.61
2018-01-16T10:25:08.174Z,92422.06
2018-01-16T10:27:36.504Z,92424.05
2018-01-16T10:30:04.884Z,92410.63
2018-01-16T10:32:33.278Z,92416.77
2018-01-16T10:35:01.677Z,92410.09
2018-01-16T10:37:30.040Z,92416.94
2018-01-16T10:39:58.407Z,92418.05
2018-01-16T10:42:26.766Z,92415.61
2018-01-16T10:44:55.184Z,92432.47
2018-01-16T10:47:23.530Z,92435.08
2018-01-16T10:49:51.867Z,92433.33
2018-01-16T10:52:20.235Z,92434.50
2018-01-16T10:54:48.606Z,92419.74
2018-01-16T10:57:16.984Z,92440.28
2018-01-16T10:59:45.377Z,92450.54
2018-01-16T11:04:48.539Z,92449.14
2018-01-16T11:07:16.891Z,92476.52
2018-01-16T11:09:45.343Z,92533.44
2018-01-16T11:12:13.754Z,92525.42
2018-01-16T11:14:42.108Z,92527.39
2018-01-16T11:17:10.464Z,92524.57
2018-01-16T11:19:38.819Z,92525.25
2018-01-16T11:22:07.196Z,92537.71
2018-01-16T11:24:35.550Z,92515.97
2018-01-16T11:27:03.902Z,92533.03
2018-01-16T11:29:32.272Z,92510.85
2018-01-16T11:32:00.627Z,92507.91
2018-01-16T11:34:29.019Z,92507.86
2018-01-16T11:36:57.378Z,92521.70
2018-01-16T11:39:25.760Z,92518.57
2018-01-16T11:41:54.095Z,92534.88
2018-01-16T11:44:22.483Z,92527.16
2018-01-16T11:46:50.834Z,92526.14
2018-01-16T11:49:19.194Z,92533.11
2018-01-16T11:51:47.599Z,92531.09
2018-01-16T11:54:15.962Z,92539.92
2018-01-16T11:56:44.315Z,92538.71
2018-01-16T11:59:12.691Z,92545.19
2018-01-16T12:01:41.057Z,92547.88
2018-01-16T12:04:09.535Z,92553.67
2018-01-16T12:06:37.898Z,92546.64
2018-01-16T12:09:06.258Z,92545.48
2018-01-16T12:11:34.614Z,92560.67
2018-01-16T12:14:02.961Z,92559.14
2018-01-16T12:16:31.359Z,92537.03
2018-01-16T12:18:59.743Z,92561.03
2018-01-16T12:21:28.141Z,92557.55
2018-01-16T12:23:57.454Z,92563.86
2018-01-16T12:26:25.812Z,92572.17
2018-01-16T12:28:54.192Z,92565.64
2018-01-16T12:31:22.540Z,92595.62
2018-01-16T12:33:50.920Z,92587.82
2018-01-16T12:36:19.278Z,92590.18
2018-01-16T12:38:47.735Z,92605.70
2018-01-16T12:41:16.103Z,92591.16
2018-01-16T12:43:44.442Z,92570.13
2018-01-16T12:46:12.810Z,92590.46
2018-01-16T12:48:41.167Z,92592.53
2018-01-16T12:51:09.627Z,92585.91
2018-01-16T12:53:37.996Z,92578.42
2018-01-16T12:56:06.381Z,92569.02
2018-01-16T12:58:34.735Z,92575.63
2018-01-16T13:01:03.098Z,92570.09
2018-01-16T13:03:31.494Z,92569.16
2018-01-16T13:05:59.857Z,92563.90
2018-01-16T13:08:28.221Z,92569.37
2018-01-16T13:10:56.573Z,92571.25
2018-01-16T13:13:24.979Z,92565.56
2018-01-16T13:15:53.399Z,92569.80
2018-01-16T13:18:21.781Z,92593.27
2018-01-16T13:20:50.119Z,92578.33
2018-01-16T13:23:18.539Z,92573.37
2018-01-16T13:25:46.888Z,92569.84
2018-01-16T13:28:15.274Z,92576.81
2018-01-16T13:30:43.654Z,92572.55
2018-01-16T13:33:12.010Z,92595.56
2018-01-16T13:35:40.391Z,92597.27
2018-01-16T13:38:08.748Z,92606.14
2018-01-16T13:40:37.230Z,92595.50
2018-01-16T13:43:05.602Z,92602.42
2018-01-16T13:45:34.117Z,92602.41
2018-01-16T13:48:02.476Z,92612.00
2018-01-16T13:50:30.829Z,92612.31
2018-01-16T13:52:59.224Z,92593.10
2018-01-16T13:55:27.584Z,92604.61
2018-01-16T13:57:55.960Z,92604.92
2018-01-16T14:00:24.325Z,92619.30
2018-01-16T14:02:52.666Z,92606.47
2018-01-16T14:05:21.057Z,92610.54
2018-01-16T14:07:49.558Z,92609.48
2018-01-16T14:10:17.912Z,92609.73
2018-01-16T14:12:46.283Z,92602.94
2018-01-16T14:15:14.633Z,92617.81
2018-01-16T14:17:43.010Z,92619.75
2018-01-16T14:20:11.368Z,92611.01
2018-01-16T14:22:39.747Z,92623.87
2018-01-16T14:25:14.751Z,92614.18
2018-01-16T14:27:43.112Z,92618.37
2018-01-16T14:30:11.532Z,92614.44
2018-01-16T14:32:39.916Z,92611.09
2018-01-16T14:35:08.280Z,92618.48
2018-01-16T14:37:36.655Z,92609.81
2018-01-16T14:40:05.043Z,92616.44
2018-01-16T14:42:33.435Z,92620.72
2018-01-16T14:45:01.803Z,92619.75
2018-01-16T14:47:30.168Z,92626.45
2018-01-16T14:49:58.532Z,92631.63
2018-01-16T14:52:26.887Z,92622.77
2018-01-16T14:54:55.289Z,92630.00
2018-01-16T14:57:23.675Z,92637.48
2018-01-16T14:59:52.044Z,92639.72
2018-01-16T15:02:20.528Z,92637.35
2018-01-16T15:04:48.901Z,92639.11
2018-01-16T15:07:17.242Z,92642.04
2018-01-16T15:09:45.649Z,92637.61
2018-01-16T15:12:14.027Z,92639.81
2018-01-16T15:14:42.406Z,92645.91
2018-01-16T15:17:10.776Z,92661.50
2018-01-16T15:19:39.271Z,92647.21
2018-01-16T15:22:07.644Z,92647.75
2018-01-16T15:24:36.045Z,92651.52
2018-01-16T15:27:04.400Z,92656.50
2018-01-16T15:29:32.913Z,92659.91
2018-01-16T15:32:01.261Z,92665.06
2018-01-16T15:34:29.626Z,92667.21
2018-01-16T15:36:57.985Z,92672.34
2018-01-16T15:39:26.651Z,92674.61
2018-01-16T15:41:55.448Z,92675.15
2018-01-16T15:44:25.535Z,92674.78
2018-01-16T15:46:54.995Z,92659.28
2018-01-16T15:52:31.791Z,92675.80
2018-01-16T15:55:05.191Z,92679.72
2018-01-16T15:57:33.659Z,92685.72
2018-01-16T16:00:02.027Z,92687.16
2018-01-16T16:02:30.379Z,92696.39
2018-01-16T16:04:58.770Z,92686.84
2018-01-16T16:07:27.151Z,92699.84
2018-01-16T16:09:55.544Z,92691.92
2018-01-16T16:12:23.953Z,92682.95
2018-01-16T16:14:52.440Z,92690.22
2018-01-16T16:17:20.786Z,92689.42
2018-01-16T16:19:49.156Z,92702.62
2018-01-16T16:22:17.506Z,92697.34
2018-01-16T16:24:45.899Z,92708.48
2018-01-16T16:27:14.263Z,92701.43
2018-01-16T16:29:42.608Z,92697.75
2018-01-16T16:32:11.014Z,92697.40
2018-01-16T16:34:39.371Z,92696.28
2018-01-16T16:37:07.758Z,92687.91
2018-01-16T16:39:36.110Z,92697.38
2018-01-16T16:42:04.516Z,92689.86
2018-01-16T16:44:32.876Z,92695.91
2018-01-16T16:47:01.232Z,92700.95
2018-01-16T16:49:29.606Z,92688.50
2018-01-16T16:51:58.895Z,92696.20
2018-01-16T16:54:27.336Z,92701.98
2018-01-16T16:56:55.832Z,92703.07
2018-01-16T16:59:24.601Z,92698.43
2018-01-16T17:01:53.577Z,92683.45
2018-01-16T17:04:23.256Z,92690.17
2018-01-16T17:06:52.987Z,92692.21
2018-01-16T17:09:21.764Z,92689.80
2018-01-16T17:11:51.316Z,92687.66
2018-01-16T17:14:19.779Z,92681.91
2018-01-16T17:16:48.166Z,92686.42
2018-01-16T17:19:16.868Z,92683.81
2018-01-16T17:21:45.277Z,92680.51
2018-01-16T17:24:13.639Z,92686.22
2018-01-16T17:26:41.994Z,92672.20
2018-01-16T17:29:10.376Z,92680.73
2018-01-16T17:31:38.752Z,92679.17
2018-01-16T17:34:07.123Z,92681.36
2018-01-16T17:36:35.475Z,92675.28
2018-01-16T17:39:03.881Z,92672.48
2018-01-16T17:41:32.382Z,92671.11
2018-01-16T17:44:00.755Z,92671.98
2018-01-16T17:46:29.139Z,92662.73
2018-01-16T17:48:57.483Z,92672.70
2018-01-16T17:51:25.852Z,92672.86
2018-01-16T17:53:54.213Z,92677.61
2018-01-16T17:56:22.616Z,92678.56
2018-01-16T17:58:51.005Z,92679.87
2018-01-16T18:01:19.398Z,92686.26
2018-01-16T18:03:47.840Z,92681.11
2018-01-16T18:06:16.461Z,92688.05
2018-01-16T18:08:44.875Z,92679.69
2018-01-16T18:11:13.231Z,92685.09
2018-01-16T18:13:41.629Z,92680.43
2018-01-16T18:16:09.987Z,92685.73
2018-01-16T18:18:38.375Z,92683.16
2018-01-16T18:21:06.773Z,92687.68
2018-01-16T18:23:35.224Z,92687.73
2018-01-16T18:26:03.802Z,92686.91
2018-01-16T18:28:32.139Z,92698.21
2018-01-16T18:31:00.567Z,92678.48
2018-01-16T18:33:28.998Z,92674.36
2018-01-16T18:35:57.431Z,92669.49
2018-01-16T18:38:25.923Z,92682.95
2018-01-16T18:40:54.284Z,92674.64
2018-01-16T18:43:22.698Z,92683.18
2018-01-16T18:45:51.046Z,92682.88
2018-01-16T18:48:19.415Z,92683.23
2018-01-16T18:50:47.823Z,92677.82
2018-01-16T18:53:16.194Z,92682.78
2018-01-16T18:55:44.572Z,92687.66
2018-01-16T18:58:12.952Z,92689.91
2018-01-16T19:00:41.313Z,92675.73
2018-01-16T19:03:09.738Z,92699.08
2018-01-16T19:05:38.113Z,92695.58
2018-01-16T19:08:06.473Z,92693.70
2018-01-16T19:10:34.827Z,92681.83
2018-01-16T19:13:03.231Z,92684.30
2018-01-16T19:15:31.671Z,92690.05
2018-01-16T19:18:00.155Z,92678.89
2018-01-16T19:20:28.520Z,92690.20
2018-01-16T19:22:56.877Z,92706.23
2018-01-16T19:25:25.215Z,92691.27
2018-01-16T19:27:53.620Z,92690.35
2018-01-16T19:30:21.968Z,92684.69
2018-01-16T19:32:50.353Z,92679.75
2018-01-16T19:35:18.697Z,92685.25
2018-01-16T19:37:47.038Z,92679.41
2018-01-16T19:40:15.417Z,92689.86
2018-01-16T19:42:43.767Z,92681.73
2018-01-16T19:45:12.126Z,92684.11
2018-01-16T19:47:40.488Z,92691.56
2018-01-16T19:50:08.846Z,92685.67
2018-01-16T19:52:37.338Z,92686.81
2018-01-16T19:55:05.768Z,92689.58
2018-01-16T19:57:34.115Z,92681.85
2018-01-16T20:00:02.499Z,92682.59
2018-01-16T20:02:30.865Z,92686.78
2018-01-16T20:04:59.267Z,92696.74
2018-01-16T20:07:27.614Z,92692.33
2018-01-16T20:09:56.007Z,92690.19
2018-01-16T20:12:24.384Z,92690.62
2018-01-16T20:17:20.422Z,92687.36
2018-01-16T20:19:50.241Z,92695.70
2018-01-16T20:22:28.211Z,92692.95
2018-01-16T20:25:01.471Z,92682.00
2018-01-16T20:27:29.990Z,92683.36
2018-01-16T20:29:58.652Z,92684.37
2018-01-16T20:32:27.002Z,92674.28
2018-01-16T20:35:01.546Z,92689.47
2018-01-16T20:37:29.928Z,92685.45
2018-01-16T20:39:58.307Z,92680.41
2018-01-16T20:42:26.727Z,92680.19
2018-01-16T20:44:55.130Z,92682.86
2018-01-16T20:47:25.505Z,92683.61
2018-01-16T20:49:53.835Z,92687.95
2018-01-16T20:55:15.568Z,92689.81
2018-01-16T20:57:43.965Z,92677.23
2018-01-16T21:00:12.311Z,92690.58
2018-01-16T21:02:40.707Z,92684.34
2018-01-16T21:05:09.265Z,92671.66
2018-01-16T21:07:37.610Z,92671.67
2018-01-16T21:10:05.967Z,92675.00
2018-01-16T21:12:34.391Z,92681.56
2018-01-16T21:15:02.759Z,92683.16
2018-01-16T21:17:31.234Z,92690.67
2018-01-16T21:19:59.567Z,92688.86
2018-01-16T21:22:27.974Z,92686.47
2018-01-16T21:24:56.323Z,92671.68
2018-01-16T21:27:24.694Z,92685.49
2018-01-16T21:29:53.220Z,92678.96
2018-01-16T21:32:21.651Z,92680.66
2018-01-16T21:34:50.008Z,92680.98
2018-01-16T21:37:18.375Z,92682.59
2018-01-16T21:39:46.737Z,92693.05
2018-01-16T21:42:15.166Z,92689.78
2018-01-16T21:44:43.613Z,92689.09
2018-01-16T21:47:11.991Z,92690.06
2018-01-16T21:49:40.355Z,92691.70
2018-01-16T21:52:08.718Z,92693.53
2018-01-16T21:54:37.095Z,92677.00
2018-01-16T21:57:05.481Z,92669.23
2018-01-16T21:59:33.991Z,92674.78
2018-01-16T22:02:02.379Z,92668.18
2018-01-16T22:04:48.183Z,92666.97
2018-01-16T22:07:16.539Z,92671.39
2018-01-16T22:09:44.898Z,92667.06
2018-01-16T22:12:13.284Z,92676.82
2018-01-16T22:14:41.638Z,92680.96
2018-01-16T22:17:09.992Z,92681.24
2018-01-16T22:19:38.346Z,92675.89
2018-01-16T22:22:06.701Z,92679.09
2018-01-16T22:24:35.087Z,92673.34
2018-01-16T22:27:03.462Z,92669.59
2018-01-16T22:29:31.799Z,92668.56
2018-01-16T22:32:00.156Z,92678.38
2018-01-16T22:34:28.536Z,92670.16
2018-01-16T22:36:56.908Z,92675.81
2018-01-16T22:39:25.300Z,92661.55
2018-01-16T22:41:53.651Z,92655.05
2018-01-16T22:44:22.019Z,92652.80
2018-01-16T22:46:50.386Z,92652.50
2018-01-16T22:49:18.738Z,92651.22
2018-01-16T22:51:47.222Z,92648.27
2018-01-16T22:54:15.571Z,92649.91
2018-01-16T22:56:43.931Z,92654.57
2018-01-16T22:59:15.418Z,92658.98
2018-01-16T23:01:43.787Z,92655.78
2018-01-16T23:04:12.286Z,92652.89
2018-01-16T23:06:40.641Z,92653.89
2018-01-16T23:09:09.022Z,92659.56
2018-01-16T23:11:37.384Z,92654.28
2018-01-16T23:14:05.758Z,92648.70
2018-01-16T23:16:34.174Z,92636.83
2018-01-16T23:19:02.540Z,92653.11
2018-01-16T23:21:30.895Z,92648.88
2018-01-16T23:23:59.250Z,92639.08
2018-01-16T23:26:27.600Z,92642.89
2018-01-16T23:28:55.983Z,92642.33
2018-01-16T23:31:24.352Z,92648.30
2018-01-16T23:33:52.704Z,92632.55
2018-01-16T23:36:21.131Z,92635.22
2018-01-16T23:38:49.498Z,92627.53
2018-01-16T23:41:17.984Z,92635.09
2018-01-16T23:43:46.344Z,92635.41
2018-01-16T23:46:14.703Z,92617.84
2018-01-16T23:48:43.136Z,92617.75
2018-01-16T23:51:11.487Z,92601.89
2018-01-16T23:53:39.984Z,92614.97
2018-01-16T23:56:08.400Z,92606.25
2018-01-16T23:58:36.769Z,92592.05
